Hines, Oregon
Current Conditions -  °F | °C
As of 11:53 AM on Saturday 25 Oct 2014 (Local Time) from KBNO Reporting Station
Broken Clouds Broken Clouds  
Wind Chill: 61°   Ceiling: 11000
Heat Index: 61°   Visibility: 10mi
Dew Point: 38°   Wind: 22mph
Humidity: 42%   Direction: 210°SSW
Pressure: 29.79"   Gusts: 32mph
Location:  43.56°N, 119.08°W
Report Text: KBNO 251853Z AUTO 21019G28KT 10SM SCT075 SCT090 BKN110 16/03 A2979 RMK AO2 PK WND 18041/1840 WSHFT 1839 SLP075 T01610033
Loading
Personal Weather Stations






























Interactive Weather Map
Tropical Storm Tracking
New forecast layout! Learn more

10-Day Weather Forecast

Advertisements
Track Severe Weather on mobile